sensor_id;sensor_type;location;lat;lon;timestamp;pressure;altitude;pressure_sealevel;temperature;humidity
11523;BME280;70090;43.208;27.904;2023-07-13T00:01:05;100968.47;;;26.09;100.00
11523;BME280;70090;43.208;27.904;2023-07-13T00:03:32;100974.75;;;26.04;100.00
11523;BME280;70090;43.208;27.904;2023-07-13T00:06:01;100965.97;;;26.02;100.00
11523;BME280;70090;43.208;27.904;2023-07-13T00:08:30;100984.00;;;26.05;100.00
11523;BME280;70090;43.208;27.904;2023-07-13T00:10:58;100962.06;;;26.00;100.00
11523;BME280;70090;43.208;27.904;2023-07-13T00:13:25;100975.84;;;26.07;100.00
11523;BME280;70090;43.208;27.904;2023-07-13T00:15:51;100944.34;;;25.90;100.00
11523;BME280;70090;43.208;27.904;2023-07-13T00:18:20;100967.72;;;26.09;100.00
11523;BME280;70090;43.208;27.904;2023-07-13T00:20:47;100956.09;;;26.07;100.00
11523;BME280;70090;43.208;27.904;2023-07-13T00:23:14;100932.47;;;25.95;100.00
11523;BME280;70090;43.208;27.904;2023-07-13T00:25:42;100965.06;;;26.14;100.00
11523;BME280;70090;43.208;27.904;2023-07-13T00:28:09;100956.88;;;26.16;100.00
11523;BME280;70090;43.208;27.904;2023-07-13T00:30:36;100961.75;;;26.16;100.00
11523;BME280;70090;43.208;27.904;2023-07-13T00:33:03;100944.50;;;26.14;100.00
11523;BME280;70090;43.208;27.904;2023-07-13T00:35:31;100938.72;;;26.17;100.00
11523;BME280;70090;43.208;27.904;2023-07-13T00:37:58;100940.56;;;26.20;100.00
11523;BME280;70090;43.208;27.904;2023-07-13T00:40:25;100938.41;;;26.24;100.00
11523;BME280;70090;43.208;27.904;2023-07-13T00:42:52;100935.38;;;26.28;100.00
11523;BME280;70090;43.208;27.904;2023-07-13T00:48:25;100925.66;;;26.29;100.00
11523;BME280;70090;43.208;27.904;2023-07-13T00:50:57;100920.81;;;26.29;100.00
11523;BME280;70090;43.208;27.904;2023-07-13T00:53:26;100926.47;;;26.29;100.00
11523;BME280;70090;43.208;27.904;2023-07-13T00:55:55;100924.09;;;26.28;100.00
11523;BME280;70090;43.208;27.904;2023-07-13T00:58:23;100919.25;;;26.28;100.00
11523;BME280;70090;43.208;27.904;2023-07-13T01:00:51;100922.38;;;26.30;100.00
11523;BME280;70090;43.208;27.904;2023-07-13T01:03:18;100912.50;;;26.26;100.00
11523;BME280;70090;43.208;27.904;2023-07-13T01:05:47;100907.34;;;26.24;100.00
11523;BME280;70090;43.208;27.904;2023-07-13T01:08:16;100903.59;;;26.18;100.00
11523;BME280;70090;43.208;27.904;2023-07-13T01:10:51;100910.81;;;26.19;100.00
11523;BME280;70090;43.208;27.904;2023-07-13T01:13:18;100897.50;;;26.20;100.00
11523;BME280;70090;43.208;27.904;2023-07-13T01:15:46;100909.22;;;26.18;100.00
11523;BME280;70090;43.208;27.904;2023-07-13T01:18:16;100892.31;;;26.18;100.00
11523;BME280;70090;43.208;27.904;2023-07-13T01:20:51;100893.88;;;26.19;100.00
11523;BME280;70090;43.208;27.904;2023-07-13T01:23:18;100895.44;;;26.20;100.00
11523;BME280;70090;43.208;27.904;2023-07-13T01:25:45;100890.75;;;26.17;100.00
11523;BME280;70090;43.208;27.904;2023-07-13T01:28:12;100890.91;;;26.14;100.00
11523;BME280;70090;43.208;27.904;2023-07-13T01:30:40;100886.69;;;26.09;100.00
11523;BME280;70090;43.208;27.904;2023-07-13T01:33:11;100890.44;;;26.15;100.00
11523;BME280;70090;43.208;27.904;2023-07-13T01:35:39;100894.97;;;26.22;100.00
11523;BME280;70090;43.208;27.904;2023-07-13T01:38:07;100898.91;;;26.24;100.00
11523;BME280;70090;43.208;27.904;2023-07-13T01:40:35;100886.00;;;26.23;100.00
11523;BME280;70090;43.208;27.904;2023-07-13T01:43:03;100887.59;;;26.24;100.00
11523;BME280;70090;43.208;27.904;2023-07-13T01:45:30;100885.56;;;26.25;100.00
11523;BME280;70090;43.208;27.904;2023-07-13T01:47:57;100881.47;;;26.26;100.00
11523;BME280;70090;43.208;27.904;2023-07-13T01:50:24;100878.19;;;26.27;100.00
11523;BME280;70090;43.208;27.904;2023-07-13T01:52:51;100876.94;;;26.28;100.00
11523;BME280;70090;43.208;27.904;2023-07-13T01:55:20;100881.63;;;26.31;100.00
11523;BME280;70090;43.208;27.904;2023-07-13T01:57:48;100869.88;;;26.33;100.00
11523;BME280;70090;43.208;27.904;2023-07-13T02:00:15;100875.00;;;26.34;100.00
11523;BME280;70090;43.208;27.904;2023-07-13T02:02:44;100873.00;;;26.35;100.00
11523;BME280;70090;43.208;27.904;2023-07-13T02:05:11;100878.16;;;26.36;100.00
11523;BME280;70090;43.208;27.904;2023-07-13T02:07:38;100876.13;;;26.37;100.00
11523;BME280;70090;43.208;27.904;2023-07-13T02:10:08;100873.59;;;26.39;100.00
11523;BME280;70090;43.208;27.904;2023-07-13T02:12:38;100882.38;;;26.41;100.00
11523;BME280;70090;43.208;27.904;2023-07-13T02:15:05;100881.28;;;26.38;100.00
11523;BME280;70090;43.208;27.904;2023-07-13T02:17:33;100879.72;;;26.37;100.00
11523;BME280;70090;43.208;27.904;2023-07-13T02:20:00;100881.75;;;26.37;100.00
11523;BME280;70090;43.208;27.904;2023-07-13T02:22:27;100871.25;;;26.37;100.00
11523;BME280;70090;43.208;27.904;2023-07-13T02:24:54;100879.44;;;26.35;100.00
11523;BME280;70090;43.208;27.904;2023-07-13T02:27:21;100879.88;;;26.34;100.00
11523;BME280;70090;43.208;27.904;2023-07-13T02:29:50;100875.97;;;26.31;100.00
11523;BME280;70090;43.208;27.904;2023-07-13T02:32:17;100882.56;;;26.28;100.00
11523;BME280;70090;43.208;27.904;2023-07-13T02:34:44;100880.38;;;26.23;100.00
11523;BME280;70090;43.208;27.904;2023-07-13T02:37:11;100872.88;;;26.20;100.00
11523;BME280;70090;43.208;27.904;2023-07-13T02:39:38;100870.03;;;26.20;100.00
11523;BME280;70090;43.208;27.904;2023-07-13T02:42:06;100870.03;;;26.20;100.00
11523;BME280;70090;43.208;27.904;2023-07-13T02:44:33;100872.56;;;26.09;100.00
11523;BME280;70090;43.208;27.904;2023-07-13T02:47:01;100877.31;;;26.03;100.00
11523;BME280;70090;43.208;27.904;2023-07-13T02:49:28;100885.28;;;25.78;100.00
11523;BME280;70090;43.208;27.904;2023-07-13T02:51:55;100889.50;;;25.65;100.00
11523;BME280;70090;43.208;27.904;2023-07-13T02:54:21;100884.31;;;25.45;100.00
11523;BME280;70090;43.208;27.904;2023-07-13T02:56:48;100894.63;;;25.30;100.00
11523;BME280;70090;43.208;27.904;2023-07-13T02:59:15;100884.78;;;25.35;100.00
11523;BME280;70090;43.208;27.904;2023-07-13T03:01:42;100881.31;;;25.31;100.00
11523;BME280;70090;43.208;27.904;2023-07-13T03:04:10;100873.75;;;25.10;100.00
11523;BME280;70090;43.208;27.904;2023-07-13T03:06:37;100879.22;;;25.04;100.00
11523;BME280;70090;43.208;27.904;2023-07-13T03:09:04;100889.00;;;24.91;100.00
11523;BME280;70090;43.208;27.904;2023-07-13T03:11:31;100874.44;;;24.83;100.00
11523;BME280;70090;43.208;27.904;2023-07-13T03:13:58;100876.50;;;24.92;100.00
11523;BME280;70090;43.208;27.904;2023-07-13T03:16:25;100870.28;;;24.97;100.00
11523;BME280;70090;43.208;27.904;2023-07-13T03:18:52;100868.34;;;24.85;100.00
11523;BME280;70090;43.208;27.904;2023-07-13T03:21:20;100876.78;;;24.76;100.00
11523;BME280;70090;43.208;27.904;2023-07-13T03:23:47;100879.59;;;24.85;100.00
11523;BME280;70090;43.208;27.904;2023-07-13T03:26:16;100878.38;;;24.95;100.00
11523;BME280;70090;43.208;27.904;2023-07-13T03:28:43;100874.81;;;25.03;100.00
11523;BME280;70090;43.208;27.904;2023-07-13T03:31:13;100884.00;;;24.95;100.00
11523;BME280;70090;43.208;27.904;2023-07-13T03:33:40;100883.31;;;24.73;100.00
11523;BME280;70090;43.208;27.904;2023-07-13T03:36:15;100880.25;;;24.58;100.00
11523;BME280;70090;43.208;27.904;2023-07-13T03:38:46;100884.25;;;24.70;100.00
11523;BME280;70090;43.208;27.904;2023-07-13T03:41:13;100873.16;;;24.75;100.00
11523;BME280;70090;43.208;27.904;2023-07-13T03:43:40;100876.81;;;24.94;100.00
11523;BME280;70090;43.208;27.904;2023-07-13T03:46:07;100881.22;;;25.04;100.00
11523;BME280;70090;43.208;27.904;2023-07-13T03:48:34;100875.63;;;25.13;100.00
11523;BME280;70090;43.208;27.904;2023-07-13T03:51:01;100882.22;;;25.19;100.00
11523;BME280;70090;43.208;27.904;2023-07-13T03:53:29;100861.06;;;25.05;100.00
11523;BME280;70090;43.208;27.904;2023-07-13T03:55:57;100893.34;;;25.22;100.00
11523;BME280;70090;43.208;27.904;2023-07-13T03:58:27;100880.69;;;25.27;100.00
11523;BME280;70090;43.208;27.904;2023-07-13T04:00:55;100892.09;;;25.32;100.00
11523;BME280;70090;43.208;27.904;2023-07-13T04:03:22;100890.22;;;25.20;100.00
11523;BME280;70090;43.208;27.904;2023-07-13T04:05:49;100891.06;;;24.99;100.00
11523;BME280;70090;43.208;27.904;2023-07-13T04:08:16;100892.75;;;24.88;100.00
11523;BME280;70090;43.208;27.904;2023-07-13T04:10:43;100890.22;;;24.81;100.00
11523;BME280;70090;43.208;27.904;2023-07-13T04:13:11;100893.13;;;24.99;100.00
11523;BME280;70090;43.208;27.904;2023-07-13T04:15:38;100889.97;;;25.06;100.00
11523;BME280;70090;43.208;27.904;2023-07-13T04:18:05;100888.91;;;25.12;100.00
11523;BME280;70090;43.208;27.904;2023-07-13T04:20:32;100886.59;;;25.20;100.00
11523;BME280;70090;43.208;27.904;2023-07-13T04:22:59;100880.84;;;25.32;100.00
11523;BME280;70090;43.208;27.904;2023-07-13T04:25:26;100877.28;;;25.41;100.00
11523;BME280;70090;43.208;27.904;2023-07-13T04:27:53;100890.44;;;25.62;100.00
11523;BME280;70090;43.208;27.904;2023-07-13T04:30:22;100893.88;;;25.83;100.00
11523;BME280;70090;43.208;27.904;2023-07-13T04:32:50;100889.69;;;25.88;100.00
11523;BME280;70090;43.208;27.904;2023-07-13T04:35:17;100896.75;;;25.92;100.00
11523;BME280;70090;43.208;27.904;2023-07-13T04:37:46;100902.34;;;26.01;100.00
11523;BME280;70090;43.208;27.904;2023-07-13T04:40:12;100895.44;;;26.20;100.00
11523;BME280;70090;43.208;27.904;2023-07-13T04:42:39;100902.31;;;26.37;100.00
11523;BME280;70090;43.208;27.904;2023-07-13T04:45:07;100909.81;;;26.40;100.00
11523;BME280;70090;43.208;27.904;2023-07-13T04:47:35;100907.16;;;26.55;100.00
11523;BME280;70090;43.208;27.904;2023-07-13T04:50:03;100910.69;;;26.73;100.00
11523;BME280;70090;43.208;27.904;2023-07-13T04:52:30;100903.88;;;26.89;100.00
11523;BME280;70090;43.208;27.904;2023-07-13T04:54:58;100914.84;;;26.96;100.00
11523;BME280;70090;43.208;27.904;2023-07-13T04:57:25;100913.75;;;26.93;100.00
11523;BME280;70090;43.208;27.904;2023-07-13T04:59:52;100909.38;;;26.83;100.00
11523;BME280;70090;43.208;27.904;2023-07-13T05:02:20;100907.81;;;26.82;100.00
11523;BME280;70090;43.208;27.904;2023-07-13T05:04:49;100899.34;;;26.82;100.00
11523;BME280;70090;43.208;27.904;2023-07-13T05:07:15;100911.88;;;26.90;100.00
11523;BME280;70090;43.208;27.904;2023-07-13T05:09:42;100907.50;;;26.89;100.00
11523;BME280;70090;43.208;27.904;2023-07-13T05:12:09;100909.59;;;26.71;100.00
11523;BME280;70090;43.208;27.904;2023-07-13T05:14:36;100914.53;;;26.94;100.00
11523;BME280;70090;43.208;27.904;2023-07-13T05:17:04;100915.91;;;26.98;100.00
11523;BME280;70090;43.208;27.904;2023-07-13T05:19:31;100917.75;;;27.10;100.00
11523;BME280;70090;43.208;27.904;2023-07-13T05:21:59;100920.09;;;27.12;100.00
11523;BME280;70090;43.208;27.904;2023-07-13T05:24:28;100924.16;;;27.20;100.00
11523;BME280;70090;43.208;27.904;2023-07-13T05:26:55;100925.06;;;27.26;100.00
11523;BME280;70090;43.208;27.904;2023-07-13T05:29:22;100919.63;;;27.13;100.00
11523;BME280;70090;43.208;27.904;2023-07-13T05:31:50;100923.56;;;27.07;100.00
11523;BME280;70090;43.208;27.904;2023-07-13T05:34:17;100926.44;;;27.30;100.00
11523;BME280;70090;43.208;27.904;2023-07-13T05:36:44;100920.91;;;27.36;100.00
11523;BME280;70090;43.208;27.904;2023-07-13T05:39:12;100926.50;;;27.45;100.00
11523;BME280;70090;43.208;27.904;2023-07-13T05:41:39;100924.94;;;27.44;100.00
11523;BME280;70090;43.208;27.904;2023-07-13T05:44:06;100930.06;;;27.54;100.00
11523;BME280;70090;43.208;27.904;2023-07-13T05:46:33;100934.34;;;27.73;100.00
11523;BME280;70090;43.208;27.904;2023-07-13T05:49:00;100936.56;;;27.93;100.00
11523;BME280;70090;43.208;27.904;2023-07-13T05:51:27;100932.97;;;28.07;100.00
11523;BME280;70090;43.208;27.904;2023-07-13T05:53:54;100929.47;;;28.12;100.00
11523;BME280;70090;43.208;27.904;2023-07-13T05:56:22;100942.97;;;28.31;100.00
11523;BME280;70090;43.208;27.904;2023-07-13T05:58:50;100935.19;;;28.41;100.00
11523;BME280;70090;43.208;27.904;2023-07-13T06:01:17;100940.66;;;28.44;100.00
11523;BME280;70090;43.208;27.904;2023-07-13T06:03:46;100947.31;;;28.41;100.00
11523;BME280;70090;43.208;27.904;2023-07-13T06:06:16;100940.66;;;28.44;100.00
11523;BME280;70090;43.208;27.904;2023-07-13T06:08:43;100939.66;;;28.47;100.00
11523;BME280;70090;43.208;27.904;2023-07-13T06:11:18;100941.66;;;28.56;100.00
11523;BME280;70090;43.208;27.904;2023-07-13T06:13:46;100942.50;;;28.62;100.00
11523;BME280;70090;43.208;27.904;2023-07-13T06:16:15;100943.59;;;28.64;100.00
11523;BME280;70090;43.208;27.904;2023-07-13T06:18:42;100944.84;;;28.63;100.00
11523;BME280;70090;43.208;27.904;2023-07-13T06:21:12;100954.91;;;28.64;100.00
11523;BME280;70090;43.208;27.904;2023-07-13T06:23:39;100951.59;;;28.66;100.00
11523;BME280;70090;43.208;27.904;2023-07-13T06:26:07;100951.88;;;28.53;100.00
11523;BME280;70090;43.208;27.904;2023-07-13T06:28:35;100948.41;;;28.20;100.00
11523;BME280;70090;43.208;27.904;2023-07-13T06:31:05;100943.69;;;28.55;100.00
11523;BME280;70090;43.208;27.904;2023-07-13T06:33:32;100935.59;;;28.48;100.00
11523;BME280;70090;43.208;27.904;2023-07-13T06:35:59;100941.81;;;28.81;100.00
11523;BME280;70090;43.208;27.904;2023-07-13T06:38:26;100946.72;;;28.95;100.00
11523;BME280;70090;43.208;27.904;2023-07-13T06:40:53;100933.25;;;28.61;100.00
11523;BME280;70090;43.208;27.904;2023-07-13T06:43:19;100945.50;;;28.29;100.00
11523;BME280;70090;43.208;27.904;2023-07-13T06:45:48;100941.63;;;28.70;100.00
11523;BME280;70090;43.208;27.904;2023-07-13T06:48:17;100948.97;;;28.91;100.00
11523;BME280;70090;43.208;27.904;2023-07-13T06:50:45;100933.06;;;28.65;100.00
11523;BME280;70090;43.208;27.904;2023-07-13T06:53:13;100939.19;;;28.34;100.00
11523;BME280;70090;43.208;27.904;2023-07-13T06:55:40;100933.53;;;28.63;100.00
11523;BME280;70090;43.208;27.904;2023-07-13T06:58:07;100935.19;;;28.98;100.00
11523;BME280;70090;43.208;27.904;2023-07-13T07:00:33;100932.00;;;29.11;100.00
11523;BME280;70090;43.208;27.904;2023-07-13T07:03:00;100940.38;;;29.20;100.00
11523;BME280;70090;43.208;27.904;2023-07-13T07:05:29;100931.69;;;28.74;100.00
11523;BME280;70090;43.208;27.904;2023-07-13T07:07:55;100931.19;;;29.25;100.00
11523;BME280;70090;43.208;27.904;2023-07-13T07:10:22;100935.34;;;29.64;100.00
11523;BME280;70090;43.208;27.904;2023-07-13T07:12:49;100928.19;;;29.88;100.00
11523;BME280;70090;43.208;27.904;2023-07-13T07:15:17;100925.84;;;30.07;100.00
11523;BME280;70090;43.208;27.904;2023-07-13T07:17:44;100935.06;;;30.22;100.00
11523;BME280;70090;43.208;27.904;2023-07-13T07:20:12;100932.59;;;30.35;100.00
11523;BME280;70090;43.208;27.904;2023-07-13T07:22:40;100938.66;;;30.48;100.00
11523;BME280;70090;43.208;27.904;2023-07-13T07:25:08;100927.69;;;30.61;100.00
11523;BME280;70090;43.208;27.904;2023-07-13T07:27:34;100930.84;;;30.63;100.00
11523;BME280;70090;43.208;27.904;2023-07-13T07:30:02;100933.31;;;30.81;100.00
11523;BME280;70090;43.208;27.904;2023-07-13T07:32:29;100924.78;;;30.81;100.00
11523;BME280;70090;43.208;27.904;2023-07-13T07:34:56;100919.34;;;30.77;100.00
11523;BME280;70090;43.208;27.904;2023-07-13T07:37:24;100921.97;;;30.86;100.00
11523;BME280;70090;43.208;27.904;2023-07-13T07:39:52;100928.22;;;30.90;100.00
11523;BME280;70090;43.208;27.904;2023-07-13T07:42:19;100930.53;;;30.92;100.00
11523;BME280;70090;43.208;27.904;2023-07-13T07:44:46;100936.22;;;30.92;100.00
11523;BME280;70090;43.208;27.904;2023-07-13T07:47:13;100926.91;;;30.86;100.00
11523;BME280;70090;43.208;27.904;2023-07-13T07:49:40;100927.66;;;30.86;100.00
11523;BME280;70090;43.208;27.904;2023-07-13T07:52:07;100927.47;;;30.95;100.00
11523;BME280;70090;43.208;27.904;2023-07-13T07:54:35;100934.91;;;30.87;100.00
11523;BME280;70090;43.208;27.904;2023-07-13T07:57:04;100935.16;;;30.84;100.00
11523;BME280;70090;43.208;27.904;2023-07-13T07:59:31;100940.28;;;30.80;100.00
11523;BME280;70090;43.208;27.904;2023-07-13T08:01:57;100930.94;;;30.74;100.00
11523;BME280;70090;43.208;27.904;2023-07-13T08:04:24;100937.16;;;30.78;100.00
11523;BME280;70090;43.208;27.904;2023-07-13T08:06:51;100930.94;;;30.74;100.00
11523;BME280;70090;43.208;27.904;2023-07-13T08:09:18;100932.28;;;30.53;100.00
11523;BME280;70090;43.208;27.904;2023-07-13T08:11:45;100933.25;;;30.50;100.00
11523;BME280;70090;43.208;27.904;2023-07-13T08:14:13;100933.81;;;30.54;100.00
11523;BME280;70090;43.208;27.904;2023-07-13T08:16:42;100926.75;;;30.44;100.00
11523;BME280;70090;43.208;27.904;2023-07-13T08:19:08;100932.72;;;30.46;100.00
11523;BME280;70090;43.208;27.904;2023-07-13T08:21:36;100936.78;;;30.39;100.00
11523;BME280;70090;43.208;27.904;2023-07-13T08:24:04;100918.78;;;30.48;100.00
11523;BME280;70090;43.208;27.904;2023-07-13T08:26:31;100924.78;;;30.55;100.00
11523;BME280;70090;43.208;27.904;2023-07-13T08:28:57;100929.38;;;30.47;100.00
11523;BME280;70090;43.208;27.904;2023-07-13T08:31:26;100930.78;;;30.32;100.00
11523;BME280;70090;43.208;27.904;2023-07-13T08:33:53;100930.94;;;30.23;100.00
11523;BME280;70090;43.208;27.904;2023-07-13T08:36:20;100929.94;;;30.26;100.00
11523;BME280;70090;43.208;27.904;2023-07-13T08:38:46;100929.50;;;30.33;100.00
11523;BME280;70090;43.208;27.904;2023-07-13T08:41:15;100933.03;;;30.28;100.00
11523;BME280;70090;43.208;27.904;2023-07-13T08:43:46;100933.03;;;30.28;100.00
11523;BME280;70090;43.208;27.904;2023-07-13T08:46:17;100934.06;;;30.25;100.00
11523;BME280;70090;43.208;27.904;2023-07-13T08:48:50;100932.06;;;30.31;100.00
11523;BME280;70090;43.208;27.904;2023-07-13T08:51:26;100913.06;;;30.17;100.00
11523;BME280;70090;43.208;27.904;2023-07-13T08:54:02;100930.66;;;30.21;100.00
11523;BME280;70090;43.208;27.904;2023-07-13T08:56:31;100929.16;;;30.25;100.00
11523;BME280;70090;43.208;27.904;2023-07-13T08:59:00;100931.91;;;30.40;100.00
11523;BME280;70090;43.208;27.904;2023-07-13T09:02:01;100923.00;;;30.58;100.00
11523;BME280;70090;43.208;27.904;2023-07-13T09:04:36;100912.00;;;30.65;100.00
11523;BME280;70090;43.208;27.904;2023-07-13T09:07:10;100920.13;;;30.78;100.00
11523;BME280;70090;43.208;27.904;2023-07-13T09:09:47;100919.69;;;30.90;100.00
11523;BME280;70090;43.208;27.904;2023-07-13T09:12:24;100923.47;;;31.13;100.00
11523;BME280;70090;43.208;27.904;2023-07-13T09:14:54;100922.09;;;31.03;100.00
11523;BME280;70090;43.208;27.904;2023-07-13T09:17:26;100920.00;;;30.98;100.00
11523;BME280;70090;43.208;27.904;2023-07-13T09:19:58;100917.00;;;31.12;100.00
11523;BME280;70090;43.208;27.904;2023-07-13T09:22:27;100929.63;;;31.06;100.00
11523;BME280;70090;43.208;27.904;2023-07-13T09:25:00;100923.31;;;31.27;96.10
11523;BME280;70090;43.208;27.904;2023-07-13T09:27:33;100920.25;;;31.31;93.88
11523;BME280;70090;43.208;27.904;2023-07-13T09:30:27;100926.25;;;31.44;94.58
11523;BME280;70090;43.208;27.904;2023-07-13T09:32:57;100932.53;;;31.53;91.88
11523;BME280;70090;43.208;27.904;2023-07-13T09:35:27;100925.41;;;31.68;91.75
11523;BME280;70090;43.208;27.904;2023-07-13T09:37:58;100913.81;;;31.88;89.03
11523;BME280;70090;43.208;27.904;2023-07-13T09:40:32;100922.13;;;32.03;88.43
11523;BME280;70090;43.208;27.904;2023-07-13T09:43:04;100914.13;;;32.01;90.25
11523;BME280;70090;43.208;27.904;2023-07-13T09:45:33;100900.59;;;31.85;88.52
11523;BME280;70090;43.208;27.904;2023-07-13T09:48:04;100908.94;;;32.05;88.67
11523;BME280;70090;43.208;27.904;2023-07-13T09:50:33;100919.34;;;32.19;88.50
11523;BME280;70090;43.208;27.904;2023-07-13T09:53:01;100912.66;;;32.33;86.54
11523;BME280;70090;43.208;27.904;2023-07-13T09:55:30;100907.75;;;32.45;86.94
11523;BME280;70090;43.208;27.904;2023-07-13T09:58:03;100911.63;;;32.47;88.71
11523;BME280;70090;43.208;27.904;2023-07-13T10:00:32;100899.72;;;32.32;89.66
11523;BME280;70090;43.208;27.904;2023-07-13T10:03:01;100907.47;;;32.26;91.83
11523;BME280;70090;43.208;27.904;2023-07-13T10:05:37;100899.44;;;32.36;88.34
11523;BME280;70090;43.208;27.904;2023-07-13T10:08:04;100895.84;;;32.41;88.30
11523;BME280;70090;43.208;27.904;2023-07-13T10:10:33;100888.84;;;32.36;86.64
11523;BME280;70090;43.208;27.904;2023-07-13T10:13:02;100884.94;;;32.34;86.37
11523;BME280;70090;43.208;27.904;2023-07-13T10:15:31;100884.44;;;32.41;89.60
11523;BME280;70090;43.208;27.904;2023-07-13T10:17:59;100885.75;;;32.51;91.46
11523;BME280;70090;43.208;27.904;2023-07-13T10:20:26;100878.25;;;32.53;92.72
11523;BME280;70090;43.208;27.904;2023-07-13T10:22:59;100881.84;;;32.43;94.25
11523;BME280;70090;43.208;27.904;2023-07-13T10:25:27;100876.16;;;32.48;93.74
11523;BME280;70090;43.208;27.904;2023-07-13T10:28:03;100845.84;;;32.23;93.73
11523;BME280;70090;43.208;27.904;2023-07-13T10:30:35;100864.50;;;32.24;92.98
11523;BME280;70090;43.208;27.904;2023-07-13T10:33:12;100859.56;;;32.25;88.63
11523;BME280;70090;43.208;27.904;2023-07-13T10:35:42;100865.00;;;32.34;89.75
11523;BME280;70090;43.208;27.904;2023-07-13T10:38:14;100875.91;;;32.41;87.02
11523;BME280;70090;43.208;27.904;2023-07-13T10:40:48;100872.78;;;32.55;88.53
11523;BME280;70090;43.208;27.904;2023-07-13T10:43:22;100867.34;;;32.63;87.61
11523;BME280;70090;43.208;27.904;2023-07-13T10:45:53;100866.06;;;32.75;88.26
11523;BME280;70090;43.208;27.904;2023-07-13T10:48:22;100860.34;;;32.91;85.66
11523;BME280;70090;43.208;27.904;2023-07-13T10:50:51;100863.19;;;32.91;86.62
11523;BME280;70090;43.208;27.904;2023-07-13T10:53:27;100853.84;;;33.07;86.43
11523;BME280;70090;43.208;27.904;2023-07-13T10:55:58;100856.66;;;33.18;87.37
11523;BME280;70090;43.208;27.904;2023-07-13T10:58:32;100858.72;;;33.29;87.30
11523;BME280;70090;43.208;27.904;2023-07-13T11:01:04;100862.59;;;33.31;87.17
11523;BME280;70090;43.208;27.904;2023-07-13T11:03:35;100866.97;;;33.43;85.77
11523;BME280;70090;43.208;27.904;2023-07-13T11:06:09;100857.53;;;33.65;84.87
11523;BME280;70090;43.208;27.904;2023-07-13T11:08:51;100861.16;;;33.65;82.58
11523;BME280;70090;43.208;27.904;2023-07-13T11:11:37;100857.78;;;33.72;85.92
11523;BME280;70090;43.208;27.904;2023-07-13T11:14:08;100863.28;;;33.59;85.38
11523;BME280;70090;43.208;27.904;2023-07-13T11:16:52;100859.16;;;33.49;87.68
11523;BME280;70090;43.208;27.904;2023-07-13T11:19:40;100860.72;;;33.50;89.29
11523;BME280;70090;43.208;27.904;2023-07-13T11:22:23;100865.59;;;33.55;87.99
11523;BME280;70090;43.208;27.904;2023-07-13T11:24:57;100856.50;;;33.62;86.57
11523;BME280;70090;43.208;27.904;2023-07-13T11:27:40;100866.34;;;33.67;85.16
11523;BME280;70090;43.208;27.904;2023-07-13T11:30:25;100854.34;;;33.79;84.98
11523;BME280;70090;43.208;27.904;2023-07-13T11:33:16;100864.75;;;33.82;82.03
11523;BME280;70090;43.208;27.904;2023-07-13T11:35:59;100853.66;;;34.08;81.02
11523;BME280;70090;43.208;27.904;2023-07-13T11:38:33;100852.34;;;34.09;79.14
11523;BME280;70090;43.208;27.904;2023-07-13T11:41:05;100860.88;;;34.15;76.34
11523;BME280;70090;43.208;27.904;2023-07-13T11:43:33;100865.56;;;34.18;76.51
11523;BME280;70090;43.208;27.904;2023-07-13T11:46:14;100858.13;;;34.39;76.42
11523;BME280;70090;43.208;27.904;2023-07-13T11:48:42;100859.28;;;34.54;74.79
11523;BME280;70090;43.208;27.904;2023-07-13T11:51:20;100838.47;;;34.59;76.22
11523;BME280;70090;43.208;27.904;2023-07-13T11:53:50;100833.38;;;34.47;76.94
11523;BME280;70090;43.208;27.904;2023-07-13T11:56:19;100836.00;;;34.45;76.84
11523;BME280;70090;43.208;27.904;2023-07-13T11:58:49;100832.28;;;34.55;77.56
11523;BME280;70090;43.208;27.904;2023-07-13T12:01:20;100832.13;;;34.42;76.42
11523;BME280;70090;43.208;27.904;2023-07-13T12:03:48;100844.81;;;34.47;77.22
11523;BME280;70090;43.208;27.904;2023-07-13T12:06:25;100831.66;;;34.38;77.63
11523;BME280;70090;43.208;27.904;2023-07-13T12:08:56;100811.91;;;34.00;77.47
11523;BME280;70090;43.208;27.904;2023-07-13T12:11:25;100828.66;;;34.20;78.09
11523;BME280;70090;43.208;27.904;2023-07-13T12:13:52;100834.41;;;34.14;79.47
11523;BME280;70090;43.208;27.904;2023-07-13T12:16:28;100831.78;;;34.16;79.25
11523;BME280;70090;43.208;27.904;2023-07-13T12:18:59;100846.75;;;34.33;79.05
11523;BME280;70090;43.208;27.904;2023-07-13T12:21:30;100836.28;;;34.41;79.08
11523;BME280;70090;43.208;27.904;2023-07-13T12:23:58;100813.03;;;34.55;78.17
11523;BME280;70090;43.208;27.904;2023-07-13T12:26:29;100828.91;;;34.80;76.37
11523;BME280;70090;43.208;27.904;2023-07-13T12:28:58;100826.13;;;34.75;76.85
11523;BME280;70090;43.208;27.904;2023-07-13T12:31:31;100824.50;;;34.79;75.90
11523;BME280;70090;43.208;27.904;2023-07-13T12:34:00;100826.81;;;34.57;75.91
11523;BME280;70090;43.208;27.904;2023-07-13T12:36:31;100823.19;;;34.51;76.89
11523;BME280;70090;43.208;27.904;2023-07-13T12:39:03;100824.31;;;34.43;77.27
11523;BME280;70090;43.208;27.904;2023-07-13T12:41:33;100814.97;;;34.42;77.98
11523;BME280;70090;43.208;27.904;2023-07-13T12:44:00;100804.13;;;34.35;77.06
11523;BME280;70090;43.208;27.904;2023-07-13T12:46:27;100795.09;;;34.26;78.26